sensor_id;sensor_type;location;lat;lon;timestamp;temperature;humidity
12819;DHT22;6474;53.474;9.894;2023-08-17T00:01:14;19.30;77.60
12819;DHT22;6474;53.474;9.894;2023-08-17T00:03:42;19.20;77.50
12819;DHT22;6474;53.474;9.894;2023-08-17T00:06:10;19.20;77.40
12819;DHT22;6474;53.474;9.894;2023-08-17T00:08:38;19.20;77.40
12819;DHT22;6474;53.474;9.894;2023-08-17T00:11:05;19.20;77.40
12819;DHT22;6474;53.474;9.894;2023-08-17T00:13:33;19.20;77.40
12819;DHT22;6474;53.474;9.894;2023-08-17T00:16:01;19.20;77.50
12819;DHT22;6474;53.474;9.894;2023-08-17T00:18:31;19.20;77.40
12819;DHT22;6474;53.474;9.894;2023-08-17T00:20:59;19.20;77.40
12819;DHT22;6474;53.474;9.894;2023-08-17T00:23:27;19.30;77.60
12819;DHT22;6474;53.474;9.894;2023-08-17T00:25:55;19.20;77.50
12819;DHT22;6474;53.474;9.894;2023-08-17T00:28:23;19.30;77.60
12819;DHT22;6474;53.474;9.894;2023-08-17T00:30:51;19.30;77.60
12819;DHT22;6474;53.474;9.894;2023-08-17T00:33:19;19.20;77.50
12819;DHT22;6474;53.474;9.894;2023-08-17T00:35:48;19.20;77.50
12819;DHT22;6474;53.474;9.894;2023-08-17T00:38:16;19.20;77.50
12819;DHT22;6474;53.474;9.894;2023-08-17T00:40:44;19.20;77.50
12819;DHT22;6474;53.474;9.894;2023-08-17T00:43:12;19.20;77.50
12819;DHT22;6474;53.474;9.894;2023-08-17T00:45:40;19.20;77.50
12819;DHT22;6474;53.474;9.894;2023-08-17T00:48:09;19.20;77.50
12819;DHT22;6474;53.474;9.894;2023-08-17T00:50:37;19.30;77.60
12819;DHT22;6474;53.474;9.894;2023-08-17T00:53:07;19.30;77.60
12819;DHT22;6474;53.474;9.894;2023-08-17T00:55:39;19.20;77.50
12819;DHT22;6474;53.474;9.894;2023-08-17T00:58:08;19.30;77.60
12819;DHT22;6474;53.474;9.894;2023-08-17T01:00:36;19.20;77.50
12819;DHT22;6474;53.474;9.894;2023-08-17T01:03:04;19.20;77.50
12819;DHT22;6474;53.474;9.894;2023-08-17T01:05:32;19.20;77.50
12819;DHT22;6474;53.474;9.894;2023-08-17T01:08:00;19.20;77.50
12819;DHT22;6474;53.474;9.894;2023-08-17T01:10:35;19.20;77.50
12819;DHT22;6474;53.474;9.894;2023-08-17T01:13:12;19.20;77.60
12819;DHT22;6474;53.474;9.894;2023-08-17T01:15:44;19.20;77.50
12819;DHT22;6474;53.474;9.894;2023-08-17T01:18:21;19.20;77.50
12819;DHT22;6474;53.474;9.894;2023-08-17T01:20:50;19.30;77.60
12819;DHT22;6474;53.474;9.894;2023-08-17T01:23:19;19.20;77.50
12819;DHT22;6474;53.474;9.894;2023-08-17T01:25:47;19.20;77.50
12819;DHT22;6474;53.474;9.894;2023-08-17T01:28:15;19.30;77.60
12819;DHT22;6474;53.474;9.894;2023-08-17T01:30:47;19.30;77.60
12819;DHT22;6474;53.474;9.894;2023-08-17T01:33:20;19.30;77.60
12819;DHT22;6474;53.474;9.894;2023-08-17T01:35:58;19.30;77.60
12819;DHT22;6474;53.474;9.894;2023-08-17T01:38:31;19.30;77.60
12819;DHT22;6474;53.474;9.894;2023-08-17T01:41:01;19.30;77.50
12819;DHT22;6474;53.474;9.894;2023-08-17T01:43:33;19.30;77.60
12819;DHT22;6474;53.474;9.894;2023-08-17T01:46:01;19.30;77.60
12819;DHT22;6474;53.474;9.894;2023-08-17T01:48:29;19.20;77.60
12819;DHT22;6474;53.474;9.894;2023-08-17T01:50:57;19.30;77.80
12819;DHT22;6474;53.474;9.894;2023-08-17T01:53:25;19.30;77.70
12819;DHT22;6474;53.474;9.894;2023-08-17T01:55:54;19.20;77.60
12819;DHT22;6474;53.474;9.894;2023-08-17T01:58:22;19.20;77.60
12819;DHT22;6474;53.474;9.894;2023-08-17T02:00:50;19.20;77.70
12819;DHT22;6474;53.474;9.894;2023-08-17T02:03:18;19.20;77.70
12819;DHT22;6474;53.474;9.894;2023-08-17T02:05:46;19.20;77.70
12819;DHT22;6474;53.474;9.894;2023-08-17T02:08:14;19.20;77.70
12819;DHT22;6474;53.474;9.894;2023-08-17T02:10:42;19.20;77.70
12819;DHT22;6474;53.474;9.894;2023-08-17T02:13:11;19.20;77.70
12819;DHT22;6474;53.474;9.894;2023-08-17T02:15:44;19.20;77.70
12819;DHT22;6474;53.474;9.894;2023-08-17T02:18:12;19.10;77.70
12819;DHT22;6474;53.474;9.894;2023-08-17T02:20:40;19.10;77.70
12819;DHT22;6474;53.474;9.894;2023-08-17T02:23:08;19.10;77.70
12819;DHT22;6474;53.474;9.894;2023-08-17T02:25:38;19.10;77.70
12819;DHT22;6474;53.474;9.894;2023-08-17T02:28:06;19.10;77.70
12819;DHT22;6474;53.474;9.894;2023-08-17T02:30:35;19.10;77.70
12819;DHT22;6474;53.474;9.894;2023-08-17T02:33:04;19.00;77.60
12819;DHT22;6474;53.474;9.894;2023-08-17T02:35:31;19.10;77.80
12819;DHT22;6474;53.474;9.894;2023-08-17T02:37:59;19.00;77.60
12819;DHT22;6474;53.474;9.894;2023-08-17T02:40:27;19.00;77.70
12819;DHT22;6474;53.474;9.894;2023-08-17T02:42:55;19.00;77.60
12819;DHT22;6474;53.474;9.894;2023-08-17T02:45:23;19.00;77.70
12819;DHT22;6474;53.474;9.894;2023-08-17T02:47:52;19.00;77.70
12819;DHT22;6474;53.474;9.894;2023-08-17T02:50:20;19.00;77.70
12819;DHT22;6474;53.474;9.894;2023-08-17T02:52:48;19.00;77.70
12819;DHT22;6474;53.474;9.894;2023-08-17T02:55:16;19.00;77.70
12819;DHT22;6474;53.474;9.894;2023-08-17T02:57:44;18.90;77.60
12819;DHT22;6474;53.474;9.894;2023-08-17T03:00:13;18.90;77.60
12819;DHT22;6474;53.474;9.894;2023-08-17T03:02:41;18.90;77.70
12819;DHT22;6474;53.474;9.894;2023-08-17T03:05:10;18.90;77.80
12819;DHT22;6474;53.474;9.894;2023-08-17T03:07:38;18.90;77.70
12819;DHT22;6474;53.474;9.894;2023-08-17T03:10:07;18.90;77.70
12819;DHT22;6474;53.474;9.894;2023-08-17T03:12:35;18.90;78.50
12819;DHT22;6474;53.474;9.894;2023-08-17T03:15:04;18.80;77.70
12819;DHT22;6474;53.474;9.894;2023-08-17T03:17:33;18.90;77.90
12819;DHT22;6474;53.474;9.894;2023-08-17T03:20:00;18.80;77.80
12819;DHT22;6474;53.474;9.894;2023-08-17T03:22:30;18.80;77.90
12819;DHT22;6474;53.474;9.894;2023-08-17T03:24:58;18.80;77.90
12819;DHT22;6474;53.474;9.894;2023-08-17T03:27:26;18.80;77.80
12819;DHT22;6474;53.474;9.894;2023-08-17T03:29:55;18.80;77.90
12819;DHT22;6474;53.474;9.894;2023-08-17T03:32:23;18.80;77.90
12819;DHT22;6474;53.474;9.894;2023-08-17T03:34:51;18.80;77.90
12819;DHT22;6474;53.474;9.894;2023-08-17T03:37:19;18.80;77.90
12819;DHT22;6474;53.474;9.894;2023-08-17T03:39:48;18.80;77.80
12819;DHT22;6474;53.474;9.894;2023-08-17T03:42:16;18.80;77.80
12819;DHT22;6474;53.474;9.894;2023-08-17T03:44:44;18.90;77.90
12819;DHT22;6474;53.474;9.894;2023-08-17T03:47:12;18.90;77.80
12819;DHT22;6474;53.474;9.894;2023-08-17T03:49:41;18.90;77.80
12819;DHT22;6474;53.474;9.894;2023-08-17T03:52:09;18.80;77.80
12819;DHT22;6474;53.474;9.894;2023-08-17T03:54:36;18.80;77.80
12819;DHT22;6474;53.474;9.894;2023-08-17T03:57:06;18.90;78.00
12819;DHT22;6474;53.474;9.894;2023-08-17T03:59:34;18.80;77.80
12819;DHT22;6474;53.474;9.894;2023-08-17T04:02:02;18.90;78.00
12819;DHT22;6474;53.474;9.894;2023-08-17T04:04:30;18.90;78.00
12819;DHT22;6474;53.474;9.894;2023-08-17T04:06:58;18.90;77.90
12819;DHT22;6474;53.474;9.894;2023-08-17T04:09:26;18.90;77.80
12819;DHT22;6474;53.474;9.894;2023-08-17T04:11:54;19.00;77.90
12819;DHT22;6474;53.474;9.894;2023-08-17T04:14:25;18.90;77.80
12819;DHT22;6474;53.474;9.894;2023-08-17T04:16:53;18.90;77.80
12819;DHT22;6474;53.474;9.894;2023-08-17T04:19:23;18.90;77.90
12819;DHT22;6474;53.474;9.894;2023-08-17T04:21:51;18.90;77.80
12819;DHT22;6474;53.474;9.894;2023-08-17T04:24:19;18.90;77.90
12819;DHT22;6474;53.474;9.894;2023-08-17T04:26:46;18.90;77.90
12819;DHT22;6474;53.474;9.894;2023-08-17T04:29:14;18.90;78.00
12819;DHT22;6474;53.474;9.894;2023-08-17T04:31:43;18.90;78.00
12819;DHT22;6474;53.474;9.894;2023-08-17T04:34:13;18.90;78.00
12819;DHT22;6474;53.474;9.894;2023-08-17T04:36:41;18.80;77.90
12819;DHT22;6474;53.474;9.894;2023-08-17T04:39:09;18.80;77.90
12819;DHT22;6474;53.474;9.894;2023-08-17T04:41:37;18.80;77.90
12819;DHT22;6474;53.474;9.894;2023-08-17T04:44:05;18.80;77.90
12819;DHT22;6474;53.474;9.894;2023-08-17T04:46:33;18.80;77.90
12819;DHT22;6474;53.474;9.894;2023-08-17T04:49:02;18.80;77.80
12819;DHT22;6474;53.474;9.894;2023-08-17T04:51:30;18.80;77.90
12819;DHT22;6474;53.474;9.894;2023-08-17T04:53:58;18.70;77.90
12819;DHT22;6474;53.474;9.894;2023-08-17T04:56:26;18.70;77.90
12819;DHT22;6474;53.474;9.894;2023-08-17T04:58:54;18.70;78.00
12819;DHT22;6474;53.474;9.894;2023-08-17T05:01:22;18.70;78.00
12819;DHT22;6474;53.474;9.894;2023-08-17T05:03:50;18.70;78.00
12819;DHT22;6474;53.474;9.894;2023-08-17T05:06:20;18.70;78.10
12819;DHT22;6474;53.474;9.894;2023-08-17T05:08:49;18.70;78.10
12819;DHT22;6474;53.474;9.894;2023-08-17T05:11:17;18.70;78.10
12819;DHT22;6474;53.474;9.894;2023-08-17T05:13:45;18.70;78.10
12819;DHT22;6474;53.474;9.894;2023-08-17T05:16:13;18.70;78.20
12819;DHT22;6474;53.474;9.894;2023-08-17T05:18:41;18.70;78.20
12819;DHT22;6474;53.474;9.894;2023-08-17T05:21:09;18.70;78.20
12819;DHT22;6474;53.474;9.894;2023-08-17T05:23:39;18.70;78.30
12819;DHT22;6474;53.474;9.894;2023-08-17T05:26:06;18.70;78.20
12819;DHT22;6474;53.474;9.894;2023-08-17T05:28:35;18.70;78.10
12819;DHT22;6474;53.474;9.894;2023-08-17T05:31:06;18.70;78.10
12819;DHT22;6474;53.474;9.894;2023-08-17T05:33:34;18.70;78.10
12819;DHT22;6474;53.474;9.894;2023-08-17T05:36:02;18.70;78.00
12819;DHT22;6474;53.474;9.894;2023-08-17T05:38:30;18.60;77.90
12819;DHT22;6474;53.474;9.894;2023-08-17T05:40:59;18.60;78.00
12819;DHT22;6474;53.474;9.894;2023-08-17T05:43:29;18.50;78.00
12819;DHT22;6474;53.474;9.894;2023-08-17T05:45:59;18.50;78.10
12819;DHT22;6474;53.474;9.894;2023-08-17T05:48:27;18.40;78.10
12819;DHT22;6474;53.474;9.894;2023-08-17T05:50:55;18.40;78.20
12819;DHT22;6474;53.474;9.894;2023-08-17T05:53:23;18.30;78.20
12819;DHT22;6474;53.474;9.894;2023-08-17T05:55:51;18.30;78.30
12819;DHT22;6474;53.474;9.894;2023-08-17T05:58:21;18.30;78.40
12819;DHT22;6474;53.474;9.894;2023-08-17T06:00:48;18.30;78.40
12819;DHT22;6474;53.474;9.894;2023-08-17T06:03:16;18.20;78.40
12819;DHT22;6474;53.474;9.894;2023-08-17T06:05:44;18.20;78.40
12819;DHT22;6474;53.474;9.894;2023-08-17T06:08:12;18.10;78.40
12819;DHT22;6474;53.474;9.894;2023-08-17T06:10:40;18.10;78.40
12819;DHT22;6474;53.474;9.894;2023-08-17T06:13:09;18.00;78.40
12819;DHT22;6474;53.474;9.894;2023-08-17T06:15:38;18.00;78.50
12819;DHT22;6474;53.474;9.894;2023-08-17T06:18:06;18.00;78.60
12819;DHT22;6474;53.474;9.894;2023-08-17T06:20:34;17.90;78.50
12819;DHT22;6474;53.474;9.894;2023-08-17T06:23:02;17.90;78.60
12819;DHT22;6474;53.474;9.894;2023-08-17T06:25:30;17.90;78.70
12819;DHT22;6474;53.474;9.894;2023-08-17T06:27:58;17.90;78.80
12819;DHT22;6474;53.474;9.894;2023-08-17T06:30:26;17.80;78.80
12819;DHT22;6474;53.474;9.894;2023-08-17T06:32:55;17.80;78.90
12819;DHT22;6474;53.474;9.894;2023-08-17T06:35:23;17.80;78.90
12819;DHT22;6474;53.474;9.894;2023-08-17T06:37:51;17.80;78.90
12819;DHT22;6474;53.474;9.894;2023-08-17T06:40:23;17.80;78.90
12819;DHT22;6474;53.474;9.894;2023-08-17T06:42:51;17.90;79.00
12819;DHT22;6474;53.474;9.894;2023-08-17T06:45:20;17.80;79.60
12819;DHT22;6474;53.474;9.894;2023-08-17T06:47:49;17.80;78.90
12819;DHT22;6474;53.474;9.894;2023-08-17T06:50:18;17.80;79.00
12819;DHT22;6474;53.474;9.894;2023-08-17T06:52:46;17.70;78.90
12819;DHT22;6474;53.474;9.894;2023-08-17T06:55:14;17.80;79.00
12819;DHT22;6474;53.474;9.894;2023-08-17T06:57:43;17.80;79.10
12819;DHT22;6474;53.474;9.894;2023-08-17T07:00:11;17.80;79.10
12819;DHT22;6474;53.474;9.894;2023-08-17T07:02:39;17.80;79.00
12819;DHT22;6474;53.474;9.894;2023-08-17T07:05:20;17.80;79.00
12819;DHT22;6474;53.474;9.894;2023-08-17T07:07:48;17.80;78.90
12819;DHT22;6474;53.474;9.894;2023-08-17T07:10:17;17.80;79.00
12819;DHT22;6474;53.474;9.894;2023-08-17T07:12:45;17.70;78.90
12819;DHT22;6474;53.474;9.894;2023-08-17T07:15:13;17.70;79.10
12819;DHT22;6474;53.474;9.894;2023-08-17T07:17:42;17.60;79.00
12819;DHT22;6474;53.474;9.894;2023-08-17T07:20:10;17.60;79.20
12819;DHT22;6474;53.474;9.894;2023-08-17T07:22:44;17.60;79.20
12819;DHT22;6474;53.474;9.894;2023-08-17T07:25:12;17.60;79.10
12819;DHT22;6474;53.474;9.894;2023-08-17T07:27:40;17.60;79.20
12819;DHT22;6474;53.474;9.894;2023-08-17T07:30:09;17.60;79.10
12819;DHT22;6474;53.474;9.894;2023-08-17T07:32:37;17.50;79.10
12819;DHT22;6474;53.474;9.894;2023-08-17T07:35:06;17.60;79.20
12819;DHT22;6474;53.474;9.894;2023-08-17T07:37:34;17.60;79.30
12819;DHT22;6474;53.474;9.894;2023-08-17T07:40:04;17.60;79.20
12819;DHT22;6474;53.474;9.894;2023-08-17T07:42:32;17.60;79.10
12819;DHT22;6474;53.474;9.894;2023-08-17T07:45:01;17.60;79.00
12819;DHT22;6474;53.474;9.894;2023-08-17T07:47:31;17.60;79.00
12819;DHT22;6474;53.474;9.894;2023-08-17T07:49:59;17.60;79.10
12819;DHT22;6474;53.474;9.894;2023-08-17T07:52:27;17.60;79.00
12819;DHT22;6474;53.474;9.894;2023-08-17T07:54:54;17.60;79.00
12819;DHT22;6474;53.474;9.894;2023-08-17T07:57:24;17.60;79.00
12819;DHT22;6474;53.474;9.894;2023-08-17T07:59:53;17.60;79.00
12819;DHT22;6474;53.474;9.894;2023-08-17T08:02:21;17.60;79.10
12819;DHT22;6474;53.474;9.894;2023-08-17T08:04:49;17.60;79.00
12819;DHT22;6474;53.474;9.894;2023-08-17T08:07:17;17.60;78.90
12819;DHT22;6474;53.474;9.894;2023-08-17T08:09:44;17.60;78.90
12819;DHT22;6474;53.474;9.894;2023-08-17T08:12:12;17.50;78.90
12819;DHT22;6474;53.474;9.894;2023-08-17T08:14:41;17.50;78.90
12819;DHT22;6474;53.474;9.894;2023-08-17T08:17:09;17.50;79.00
12819;DHT22;6474;53.474;9.894;2023-08-17T08:19:37;17.40;79.00
12819;DHT22;6474;53.474;9.894;2023-08-17T08:22:05;17.30;79.20
12819;DHT22;6474;53.474;9.894;2023-08-17T08:24:32;17.20;79.30
12819;DHT22;6474;53.474;9.894;2023-08-17T08:27:04;17.20;79.70
12819;DHT22;6474;53.474;9.894;2023-08-17T08:29:33;17.20;79.70
12819;DHT22;6474;53.474;9.894;2023-08-17T08:32:02;17.20;79.70
12819;DHT22;6474;53.474;9.894;2023-08-17T08:34:30;17.20;79.80
12819;DHT22;6474;53.474;9.894;2023-08-17T08:36:58;17.30;79.80
12819;DHT22;6474;53.474;9.894;2023-08-17T08:39:26;17.30;79.50
12819;DHT22;6474;53.474;9.894;2023-08-17T08:41:54;17.40;79.40
12819;DHT22;6474;53.474;9.894;2023-08-17T08:44:22;17.40;79.30
12819;DHT22;6474;53.474;9.894;2023-08-17T08:46:50;17.50;79.30
12819;DHT22;6474;53.474;9.894;2023-08-17T08:49:23;17.50;79.20
12819;DHT22;6474;53.474;9.894;2023-08-17T08:51:51;17.60;79.10
12819;DHT22;6474;53.474;9.894;2023-08-17T08:54:21;17.60;79.10
12819;DHT22;6474;53.474;9.894;2023-08-17T08:56:53;17.60;79.10
12819;DHT22;6474;53.474;9.894;2023-08-17T08:59:23;17.60;79.00
12819;DHT22;6474;53.474;9.894;2023-08-17T09:01:54;17.60;79.10
12819;DHT22;6474;53.474;9.894;2023-08-17T09:04:25;17.70;79.00
12819;DHT22;6474;53.474;9.894;2023-08-17T09:06:53;17.70;78.90
12819;DHT22;6474;53.474;9.894;2023-08-17T09:09:23;17.60;78.90
12819;DHT22;6474;53.474;9.894;2023-08-17T09:11:54;17.60;78.90
12819;DHT22;6474;53.474;9.894;2023-08-17T09:14:22;17.60;79.10
12819;DHT22;6474;53.474;9.894;2023-08-17T09:16:50;17.60;79.00
12819;DHT22;6474;53.474;9.894;2023-08-17T09:19:18;17.60;79.00
12819;DHT22;6474;53.474;9.894;2023-08-17T09:21:47;17.70;79.10
12819;DHT22;6474;53.474;9.894;2023-08-17T09:24:17;17.70;79.00
12819;DHT22;6474;53.474;9.894;2023-08-17T09:26:45;17.70;78.90
12819;DHT22;6474;53.474;9.894;2023-08-17T09:29:20;17.70;78.90
12819;DHT22;6474;53.474;9.894;2023-08-17T09:31:50;17.70;79.00
12819;DHT22;6474;53.474;9.894;2023-08-17T09:34:19;17.70;78.90
12819;DHT22;6474;53.474;9.894;2023-08-17T09:36:48;17.80;79.00
12819;DHT22;6474;53.474;9.894;2023-08-17T09:39:16;17.80;79.00
12819;DHT22;6474;53.474;9.894;2023-08-17T09:41:44;17.90;79.00
12819;DHT22;6474;53.474;9.894;2023-08-17T09:44:12;18.00;78.90
12819;DHT22;6474;53.474;9.894;2023-08-17T09:46:42;18.10;78.90
12819;DHT22;6474;53.474;9.894;2023-08-17T09:49:10;18.10;78.80
12819;DHT22;6474;53.474;9.894;2023-08-17T09:51:41;18.20;78.80
12819;DHT22;6474;53.474;9.894;2023-08-17T09:54:20;18.30;78.90
12819;DHT22;6474;53.474;9.894;2023-08-17T09:56:50;18.40;78.90
12819;DHT22;6474;53.474;9.894;2023-08-17T09:59:18;18.50;78.80
12819;DHT22;6474;53.474;9.894;2023-08-17T10:01:49;18.60;78.70
12819;DHT22;6474;53.474;9.894;2023-08-17T10:04:23;18.60;78.40
12819;DHT22;6474;53.474;9.894;2023-08-17T10:06:58;18.70;78.50
12819;DHT22;6474;53.474;9.894;2023-08-17T10:09:31;18.70;78.50
12819;DHT22;6474;53.474;9.894;2023-08-17T10:12:06;18.80;78.60
12819;DHT22;6474;53.474;9.894;2023-08-17T10:14:42;18.80;78.70
12819;DHT22;6474;53.474;9.894;2023-08-17T10:17:16;18.80;78.70
12819;DHT22;6474;53.474;9.894;2023-08-17T10:19:50;18.80;78.60
12819;DHT22;6474;53.474;9.894;2023-08-17T10:22:23;18.80;78.60
12819;DHT22;6474;53.474;9.894;2023-08-17T10:24:55;18.80;78.60
12819;DHT22;6474;53.474;9.894;2023-08-17T10:27:25;18.80;78.60
12819;DHT22;6474;53.474;9.894;2023-08-17T10:29:54;18.70;78.70
12819;DHT22;6474;53.474;9.894;2023-08-17T10:32:22;18.70;78.70
12819;DHT22;6474;53.474;9.894;2023-08-17T10:34:52;18.60;78.70
12819;DHT22;6474;53.474;9.894;2023-08-17T10:37:21;18.40;78.70
12819;DHT22;6474;53.474;9.894;2023-08-17T10:39:50;18.30;78.80
12819;DHT22;6474;53.474;9.894;2023-08-17T10:42:31;18.20;79.10
12819;DHT22;6474;53.474;9.894;2023-08-17T10:44:59;18.10;79.40
12819;DHT22;6474;53.474;9.894;2023-08-17T10:47:30;18.00;80.10
12819;DHT22;6474;53.474;9.894;2023-08-17T10:50:04;18.00;79.50
12819;DHT22;6474;53.474;9.894;2023-08-17T10:52:34;17.90;79.50
12819;DHT22;6474;53.474;9.894;2023-08-17T10:55:05;17.90;79.80
12819;DHT22;6474;53.474;9.894;2023-08-17T10:57:36;17.80;79.70
12819;DHT22;6474;53.474;9.894;2023-08-17T11:00:11;17.80;79.70
12819;DHT22;6474;53.474;9.894;2023-08-17T11:02:53;17.70;79.90
12819;DHT22;6474;53.474;9.894;2023-08-17T11:05:38;17.60;80.10
12819;DHT22;6474;53.474;9.894;2023-08-17T11:08:06;17.50;80.10
12819;DHT22;6474;53.474;9.894;2023-08-17T11:10:36;17.50;80.10
12819;DHT22;6474;53.474;9.894;2023-08-17T11:13:06;17.40;80.00
12819;DHT22;6474;53.474;9.894;2023-08-17T11:15:38;17.40;80.00
12819;DHT22;6474;53.474;9.894;2023-08-17T11:18:10;17.30;79.90
12819;DHT22;6474;53.474;9.894;2023-08-17T11:20:40;17.30;79.90
12819;DHT22;6474;53.474;9.894;2023-08-17T11:23:09;17.30;79.90
12819;DHT22;6474;53.474;9.894;2023-08-17T11:25:38;17.30;79.90
12819;DHT22;6474;53.474;9.894;2023-08-17T11:28:08;17.30;79.90
12819;DHT22;6474;53.474;9.894;2023-08-17T11:30:37;17.40;80.00
12819;DHT22;6474;53.474;9.894;2023-08-17T11:33:06;17.30;79.90
12819;DHT22;6474;53.474;9.894;2023-08-17T11:35:34;17.40;80.00
12819;DHT22;6474;53.474;9.894;2023-08-17T11:38:03;17.40;80.00
12819;DHT22;6474;53.474;9.894;2023-08-17T11:40:35;17.40;80.00
12819;DHT22;6474;53.474;9.894;2023-08-17T11:43:04;17.40;80.00
12819;DHT22;6474;53.474;9.894;2023-08-17T11:45:33;17.30;79.90
12819;DHT22;6474;53.474;9.894;2023-08-17T11:48:01;17.30;79.90
12819;DHT22;6474;53.474;9.894;2023-08-17T11:50:30;17.20;79.80
12819;DHT22;6474;53.474;9.894;2023-08-17T11:52:59;17.20;79.80
12819;DHT22;6474;53.474;9.894;2023-08-17T11:55:27;17.20;79.80
12819;DHT22;6474;53.474;9.894;2023-08-17T11:57:56;17.30;79.90
12819;DHT22;6474;53.474;9.894;2023-08-17T12:00:24;17.40;80.00
12819;DHT22;6474;53.474;9.894;2023-08-17T12:02:53;17.50;80.10
12819;DHT22;6474;53.474;9.894;2023-08-17T12:05:23;17.60;80.20
12819;DHT22;6474;53.474;9.894;2023-08-17T12:07:53;17.80;80.40
12819;DHT22;6474;53.474;9.894;2023-08-17T12:10:21;17.80;79.90
12819;DHT22;6474;53.474;9.894;2023-08-17T12:12:50;17.80;79.80
12819;DHT22;6474;53.474;9.894;2023-08-17T12:15:18;17.80;79.60
12819;DHT22;6474;53.474;9.894;2023-08-17T12:17:46;17.70;79.60
12819;DHT22;6474;53.474;9.894;2023-08-17T12:20:20;17.70;79.70
12819;DHT22;6474;53.474;9.894;2023-08-17T12:22:48;17.60;79.90
12819;DHT22;6474;53.474;9.894;2023-08-17T12:25:20;17.60;80.10
12819;DHT22;6474;53.474;9.894;2023-08-17T12:27:48;17.60;80.20
12819;DHT22;6474;53.474;9.894;2023-08-17T12:30:26;17.50;80.10
12819;DHT22;6474;53.474;9.894;2023-08-17T12:32:54;17.50;80.10
12819;DHT22;6474;53.474;9.894;2023-08-17T12:35:25;17.50;80.10
12819;DHT22;6474;53.474;9.894;2023-08-17T12:37:54;17.50;80.10
12819;DHT22;6474;53.474;9.894;2023-08-17T12:40:22;17.40;80.00
12819;DHT22;6474;53.474;9.894;2023-08-17T12:42:51;17.40;80.00
12819;DHT22;6474;53.474;9.894;2023-08-17T12:45:20;17.40;80.00
12819;DHT22;6474;53.474;9.894;2023-08-17T12:47:54;17.30;79.90
12819;DHT22;6474;53.474;9.894;2023-08-17T12:50:22;17.40;80.00
12819;DHT22;6474;53.474;9.894;2023-08-17T12:52:51;17.40;80.00
12819;DHT22;6474;53.474;9.894;2023-08-17T12:55:19;17.40;80.00
12819;DHT22;6474;53.474;9.894;2023-08-17T12:57:47;17.50;80.10
12819;DHT22;6474;53.474;9.894;2023-08-17T13:00:15;17.60;80.20
12819;DHT22;6474;53.474;9.894;2023-08-17T13:02:43;17.60;80.20
12819;DHT22;6474;53.474;9.894;2023-08-17T13:05:16;17.70;80.30
12819;DHT22;6474;53.474;9.894;2023-08-17T13:07:43;17.70;80.00
12819;DHT22;6474;53.474;9.894;2023-08-17T13:10:13;17.70;80.00
12819;DHT22;6474;53.474;9.894;2023-08-17T13:12:40;17.80;80.00
12819;DHT22;6474;53.474;9.894;2023-08-17T13:15:09;17.80;79.90
12819;DHT22;6474;53.474;9.894;2023-08-17T13:17:36;17.80;79.90
12819;DHT22;6474;53.474;9.894;2023-08-17T13:20:05;17.80;80.00
12819;DHT22;6474;53.474;9.894;2023-08-17T13:22:33;17.80;80.10
12819;DHT22;6474;53.474;9.894;2023-08-17T13:25:01;17.80;80.30
12819;DHT22;6474;53.474;9.894;2023-08-17T13:27:30;17.90;80.50
12819;DHT22;6474;53.474;9.894;2023-08-17T13:29:58;18.00;80.60
12819;DHT22;6474;53.474;9.894;2023-08-17T13:32:26;18.10;80.70
12819;DHT22;6474;53.474;9.894;2023-08-17T13:34:54;18.20;80.40
12819;DHT22;6474;53.474;9.894;2023-08-17T13:37:22;18.30;80.30
12819;DHT22;6474;53.474;9.894;2023-08-17T13:39:50;18.40;80.30
12819;DHT22;6474;53.474;9.894;2023-08-17T13:42:18;18.60;80.40
12819;DHT22;6474;53.474;9.894;2023-08-17T13:44:47;18.70;80.30
12819;DHT22;6474;53.474;9.894;2023-08-17T13:47:15;18.90;81.10
12819;DHT22;6474;53.474;9.894;2023-08-17T13:49:42;19.00;80.30
12819;DHT22;6474;53.474;9.894;2023-08-17T13:52:10;19.20;80.30
12819;DHT22;6474;53.474;9.894;2023-08-17T13:54:38;19.30;80.20
12819;DHT22;6474;53.474;9.894;2023-08-17T13:57:07;19.50;80.30
12819;DHT22;6474;53.474;9.894;2023-08-17T13:59:35;19.60;80.20
12819;DHT22;6474;53.474;9.894;2023-08-17T14:02:04;19.70;80.30
12819;DHT22;6474;53.474;9.894;2023-08-17T14:04:32;19.70;80.10
12819;DHT22;6474;53.474;9.894;2023-08-17T14:07:00;19.70;80.10
12819;DHT22;6474;53.474;9.894;2023-08-17T14:09:28;19.80;80.20
12819;DHT22;6474;53.474;9.894;2023-08-17T14:11:56;19.80;80.20
12819;DHT22;6474;53.474;9.894;2023-08-17T14:14:23;19.80;80.30
12819;DHT22;6474;53.474;9.894;2023-08-17T14:16:51;19.80;80.30
12819;DHT22;6474;53.474;9.894;2023-08-17T14:19:21;19.70;80.20
12819;DHT22;6474;53.474;9.894;2023-08-17T14:21:49;19.70;80.30
12819;DHT22;6474;53.474;9.894;2023-08-17T14:24:17;19.60;80.20
12819;DHT22;6474;53.474;9.894;2023-08-17T14:26:45;19.50;80.30
12819;DHT22;6474;53.474;9.894;2023-08-17T14:29:13;19.40;80.30
12819;DHT22;6474;53.474;9.894;2023-08-17T14:31:41;19.30;80.40
12819;DHT22;6474;53.474;9.894;2023-08-17T14:34:09;19.10;80.30
12819;DHT22;6474;53.474;9.894;2023-08-17T14:36:38;19.10;80.60
12819;DHT22;6474;53.474;9.894;2023-08-17T14:39:06;19.00;80.70
12819;DHT22;6474;53.474;9.894;2023-08-17T14:41:34;19.00;80.80
12819;DHT22;6474;53.474;9.894;2023-08-17T14:44:05;19.00;80.80
12819;DHT22;6474;53.474;9.894;2023-08-17T14:46:33;19.00;80.90
12819;DHT22;6474;53.474;9.894;2023-08-17T14:49:01;19.00;80.80
12819;DHT22;6474;53.474;9.894;2023-08-17T14:51:29;19.00;80.80
12819;DHT22;6474;53.474;9.894;2023-08-17T14:53:59;19.10;80.90
12819;DHT22;6474;53.474;9.894;2023-08-17T14:56:27;19.10;80.80
12819;DHT22;6474;53.474;9.894;2023-08-17T14:58:54;19.10;80.60
12819;DHT22;6474;53.474;9.894;2023-08-17T15:01:22;19.20;80.70
12819;DHT22;6474;53.474;9.894;2023-08-17T15:03:50;19.20;80.60
12819;DHT22;6474;53.474;9.894;2023-08-17T15:06:18;19.20;80.70
12819;DHT22;6474;53.474;9.894;2023-08-17T15:09:02;19.20;80.60
12819;DHT22;6474;53.474;9.894;2023-08-17T15:11:31;19.20;80.60
12819;DHT22;6474;53.474;9.894;2023-08-17T15:13:59;19.20;80.50
12819;DHT22;6474;53.474;9.894;2023-08-17T15:16:27;19.20;80.50
12819;DHT22;6474;53.474;9.894;2023-08-17T15:18:56;19.20;80.50
12819;DHT22;6474;53.474;9.894;2023-08-17T15:21:24;19.20;80.40
12819;DHT22;6474;53.474;9.894;2023-08-17T15:23:52;19.10;80.30
12819;DHT22;6474;53.474;9.894;2023-08-17T15:26:21;19.00;80.40
12819;DHT22;6474;53.474;9.894;2023-08-17T15:28:49;19.00;80.50
12819;DHT22;6474;53.474;9.894;2023-08-17T15:31:17;19.00;80.60
12819;DHT22;6474;53.474;9.894;2023-08-17T15:33:46;18.90;80.60
12819;DHT22;6474;53.474;9.894;2023-08-17T15:36:14;18.90;80.60
12819;DHT22;6474;53.474;9.894;2023-08-17T15:38:45;18.80;80.50
12819;DHT22;6474;53.474;9.894;2023-08-17T15:41:12;18.80;80.60
12819;DHT22;6474;53.474;9.894;2023-08-17T15:43:42;18.80;80.70
12819;DHT22;6474;53.474;9.894;2023-08-17T15:46:10;18.80;80.80
12819;DHT22;6474;53.474;9.894;2023-08-17T15:48:39;18.80;80.80
12819;DHT22;6474;53.474;9.894;2023-08-17T15:51:08;18.80;80.70
12819;DHT22;6474;53.474;9.894;2023-08-17T15:53:36;18.80;80.70
12819;DHT22;6474;53.474;9.894;2023-08-17T15:56:10;18.80;80.70